Swanville, Minnesota
Current Conditions -  °F | °C
As of 9:22 AM on Wednesday 22 Oct 2014 (Local Time) from K14Y Reporting Station
Overcast Overcast  
Wind Chill: 35°   Ceiling: 3800
Heat Index: 43°   Visibility: 10mi
Dew Point: 37°   Wind: 15mph
Humidity: 81%   Direction: 120°ESE
Pressure: 30.05"   Gusts: 21mph
Location:  45.91°N, 94.64°W
Report Text: K14Y 221422Z AUTO 12013G18KT 10SM OVC038 06/03 A3005 RMK AO2
Loading
Personal Weather Stations






























Interactive Weather Map
Tropical Storm Tracking
New forecast layout! Learn more

10-Day Weather Forecast

Advertisements
Track Severe Weather on mobile